createdAt,value
2022-11-29T00:00:59.791Z,15.38
2022-11-29T00:03:28.977Z,14.50
2022-11-29T00:05:57.184Z,16.15
2022-11-29T00:08:25.428Z,14.77
2022-11-29T00:10:54.487Z,13.82
2022-11-29T00:13:22.185Z,14.40
2022-11-29T00:15:49.862Z,13.93
2022-11-29T00:18:17.483Z,14.15
2022-11-29T00:20:45.192Z,12.73
2022-11-29T00:23:12.855Z,12.13
2022-11-29T00:25:40.551Z,12.75
2022-11-29T00:28:09.558Z,13.32
2022-11-29T00:30:37.285Z,12.35
2022-11-29T00:33:04.967Z,13.27
2022-11-29T00:35:32.947Z,12.45
2022-11-29T00:38:00.591Z,12.13
2022-11-29T00:40:29.933Z,11.88
2022-11-29T00:42:57.621Z,12.07
2022-11-29T00:45:26.646Z,13.55
2022-11-29T00:47:54.272Z,13.25
2022-11-29T00:50:21.977Z,14.00
2022-11-29T00:52:49.817Z,12.75
2022-11-29T00:55:17.523Z,13.32
2022-11-29T00:57:45.177Z,13.25
2022-11-29T01:00:14.083Z,12.90
2022-11-29T01:02:43.152Z,13.32
2022-11-29T01:05:10.895Z,11.88
2022-11-29T01:07:38.556Z,15.48
2022-11-29T01:10:07.765Z,12.90
2022-11-29T01:12:36.379Z,13.18
2022-11-29T02:19:49.796Z,12.27
2022-11-29T02:22:25.408Z,11.50
2022-11-29T02:28:11.993Z,12.10
2022-11-29T02:31:00.948Z,11.05
2022-11-29T02:33:49.051Z,11.48
2022-11-29T02:36:54.241Z,11.55
2022-11-29T02:39:51.602Z,11.80
2022-11-29T02:42:56.077Z,11.23
2022-11-29T02:45:37.710Z,11.35
2022-11-29T02:48:19.895Z,11.15
2022-11-29T02:50:58.921Z,11.95
2022-11-29T02:53:33.442Z,11.43
2022-11-29T02:56:09.373Z,10.85
2022-11-29T02:58:48.173Z,11.80
2022-11-29T03:01:20.975Z,10.10
2022-11-29T03:03:56.055Z,11.00
2022-11-29T03:06:35.024Z,10.57
2022-11-29T03:09:12.580Z,10.77
2022-11-29T03:11:48.990Z,10.88
2022-11-29T03:14:25.182Z,9.85
2022-11-29T03:17:02.397Z,10.88
2022-11-29T03:19:56.476Z,11.40
2022-11-29T03:22:38.343Z,11.05
2022-11-29T03:25:10.031Z,10.50
2022-11-29T03:27:42.820Z,11.50
2022-11-29T03:30:12.930Z,10.15
2022-11-29T03:32:48.260Z,12.30
2022-11-29T03:35:23.344Z,10.52
2022-11-29T03:38:00.609Z,11.98
2022-11-29T03:40:34.319Z,10.10
2022-11-29T03:43:07.752Z,10.52
2022-11-29T03:45:41.034Z,10.95
2022-11-29T03:48:12.737Z,12.02
2022-11-29T03:50:47.378Z,9.82
2022-11-29T03:53:23.624Z,11.13
2022-11-29T03:55:55.821Z,11.73
2022-11-29T03:58:48.388Z,11.07
2022-11-29T04:02:05.125Z,11.07
2022-11-29T04:05:07.241Z,10.98
2022-11-29T04:07:49.075Z,9.88
2022-11-29T04:10:36.632Z,10.18
2022-11-29T04:13:29.684Z,10.00
2022-11-29T04:16:22.783Z,10.15
2022-11-29T04:19:05.441Z,10.13
2022-11-29T04:21:46.362Z,10.82
2022-11-29T04:24:45.826Z,10.07
2022-11-29T04:27:30.069Z,10.20
2022-11-29T04:30:19.291Z,11.60
2022-11-29T04:33:29.541Z,10.63
2022-11-29T04:36:14.956Z,10.68
2022-11-29T04:39:01.664Z,11.20
2022-11-29T04:42:01.662Z,12.25
2022-11-29T04:44:47.453Z,11.82
2022-11-29T04:47:41.742Z,11.55
2022-11-29T04:50:33.366Z,12.60
2022-11-29T04:53:30.550Z,11.43
2022-11-29T04:56:09.049Z,10.63
2022-11-29T04:58:42.101Z,10.63
2022-11-29T05:01:20.800Z,11.30
2022-11-29T05:03:57.278Z,10.82
2022-11-29T05:06:33.786Z,10.23
2022-11-29T05:09:11.702Z,8.90
2022-11-29T05:11:51.221Z,8.40
2022-11-29T05:14:33.898Z,8.57
2022-11-29T05:17:24.356Z,9.27
2022-11-29T05:20:04.787Z,8.52
2022-11-29T05:22:40.275Z,9.02
2022-11-29T05:27:52.399Z,8.25
2022-11-29T05:30:23.148Z,8.43
2022-11-29T05:32:58.898Z,8.30
2022-11-29T05:35:48.772Z,7.60
2022-11-29T05:38:35.235Z,8.73
2022-11-29T05:41:14.748Z,8.50
2022-11-29T05:43:52.816Z,8.05
2022-11-29T05:46:25.960Z,8.27
2022-11-29T05:49:04.535Z,7.78
2022-11-29T05:51:41.592Z,8.93
2022-11-29T05:54:19.493Z,8.60
2022-11-29T05:56:57.997Z,8.60
2022-11-29T05:59:28.450Z,8.38
2022-11-29T06:02:05.731Z,8.50
2022-11-29T06:04:56.035Z,8.10
2022-11-29T06:07:30.750Z,8.60
2022-11-29T06:10:02.409Z,8.13
2022-11-29T06:12:31.876Z,8.90
2022-11-29T06:15:20.212Z,7.78
2022-11-29T06:18:02.917Z,7.90
2022-11-29T06:20:44.601Z,8.48
2022-11-29T06:23:41.305Z,8.88
2022-11-29T06:26:34.207Z,9.63
2022-11-29T06:29:23.663Z,9.75
2022-11-29T06:31:57.297Z,9.85
2022-11-29T06:34:33.413Z,9.65
2022-11-29T06:37:07.940Z,8.88
2022-11-29T06:39:36.104Z,8.68
2022-11-29T06:42:03.809Z,8.65
2022-11-29T06:44:32.080Z,8.98
2022-11-29T06:47:06.406Z,8.65
2022-11-29T06:49:43.745Z,11.00
2022-11-29T06:52:23.647Z,9.70
2022-11-29T06:55:04.368Z,9.63
2022-11-29T06:57:40.578Z,9.98
2022-11-29T07:00:17.539Z,9.18
2022-11-29T07:03:00.654Z,9.90
2022-11-29T07:05:30.402Z,9.10
2022-11-29T07:08:03.932Z,8.73
2022-11-29T07:10:33.512Z,8.88
2022-11-29T07:13:01.965Z,8.52
2022-11-29T07:15:30.482Z,8.25
2022-11-29T07:18:14.554Z,9.55
2022-11-29T07:20:50.336Z,7.47
2022-11-29T07:23:29.814Z,7.18
2022-11-29T07:26:08.375Z,8.85
2022-11-29T07:28:47.186Z,7.55
2022-11-29T07:31:23.558Z,7.72
2022-11-29T07:34:00.107Z,8.02
2022-11-29T07:36:38.562Z,8.20
2022-11-29T07:39:26.899Z,8.15
2022-11-29T07:42:01.675Z,7.50
2022-11-29T07:44:36.518Z,7.40
2022-11-29T07:47:04.281Z,8.32
2022-11-29T07:49:32.103Z,7.72
2022-11-29T07:51:59.870Z,7.28
2022-11-29T07:54:29.447Z,7.05
2022-11-29T07:56:57.191Z,7.03
2022-11-29T07:59:25.467Z,7.22
2022-11-29T08:01:53.228Z,6.53
2022-11-29T08:04:22.858Z,6.78
2022-11-29T08:06:50.575Z,7.30
2022-11-29T08:09:18.819Z,6.47
2022-11-29T08:11:48.878Z,7.10
2022-11-29T08:14:16.646Z,6.95
2022-11-29T08:16:44.473Z,7.03
2022-11-29T08:19:12.210Z,7.15
2022-11-29T08:21:39.963Z,8.45
2022-11-29T08:24:07.845Z,7.93
2022-11-29T08:26:35.573Z,7.85
2022-11-29T08:29:04.775Z,7.50
2022-11-29T08:31:32.532Z,7.00
2022-11-29T08:34:00.323Z,6.78
2022-11-29T08:36:28.081Z,6.65
2022-11-29T08:39:03.426Z,6.82
2022-11-29T08:41:33.781Z,6.45
2022-11-29T08:44:01.471Z,6.30
2022-11-29T08:46:44.432Z,6.10
2022-11-29T08:49:12.073Z,6.38
2022-11-29T08:51:39.779Z,5.55
2022-11-29T08:54:06.575Z,5.78
2022-11-29T08:59:22.034Z,5.95
2022-11-29T09:01:51.199Z,5.68
2022-11-29T09:04:18.968Z,5.93
2022-11-29T09:06:49.521Z,5.40
2022-11-29T09:09:18.062Z,5.43
2022-11-29T09:11:49.418Z,5.60
2022-11-29T09:14:18.522Z,4.97
2022-11-29T09:16:46.453Z,5.38
2022-11-29T09:19:16.796Z,5.57
2022-11-29T09:21:44.587Z,5.65
2022-11-29T09:24:12.816Z,5.45
2022-11-29T09:26:40.737Z,5.90
2022-11-29T09:29:09.397Z,5.90
2022-11-29T09:31:37.345Z,5.38
2022-11-29T09:34:05.238Z,5.18
2022-11-29T09:36:34.463Z,5.75
2022-11-29T09:39:03.740Z,4.82
2022-11-29T09:41:50.560Z,5.22
2022-11-29T09:44:23.532Z,5.60
2022-11-29T09:47:02.114Z,5.13
2022-11-29T09:50:03.706Z,4.43
2022-11-29T09:52:50.368Z,4.53
2022-11-29T09:55:42.937Z,4.40
2022-11-29T09:58:16.577Z,5.07
2022-11-29T10:00:49.688Z,4.55
2022-11-29T10:03:25.356Z,5.15
2022-11-29T10:08:30.275Z,5.30
2022-11-29T10:11:06.876Z,5.43
2022-11-29T10:13:38.145Z,5.40
2022-11-29T10:16:13.234Z,5.63
2022-11-29T10:18:49.193Z,5.40
2022-11-29T10:21:20.850Z,4.43
2022-11-29T10:23:53.839Z,4.32
2022-11-29T10:26:22.998Z,3.72
2022-11-29T10:28:50.827Z,3.97
2022-11-29T10:31:22.496Z,3.40
2022-11-29T10:33:51.219Z,4.10
2022-11-29T10:36:27.135Z,4.13
2022-11-29T10:39:00.745Z,4.00
2022-11-29T10:41:28.590Z,3.67
2022-11-29T10:43:58.853Z,4.32
2022-11-29T10:46:32.371Z,3.90
2022-11-29T10:49:03.815Z,4.00
2022-11-29T10:51:32.894Z,3.97
2022-11-29T10:54:17.102Z,3.90
2022-11-29T10:56:47.281Z,3.80
2022-11-29T10:59:22.095Z,3.92
2022-11-29T11:01:50.739Z,3.55
2022-11-29T11:04:27.496Z,3.78
2022-11-29T11:06:56.849Z,3.55
2022-11-29T11:09:34.177Z,4.18
2022-11-29T11:12:05.092Z,4.47
2022-11-29T11:14:37.470Z,4.15
2022-11-29T11:17:25.988Z,4.38
2022-11-29T11:20:00.779Z,4.75
2022-11-29T11:22:31.292Z,4.28
2022-11-29T11:25:05.107Z,5.05
2022-11-29T11:27:34.889Z,5.38
2022-11-29T11:30:03.936Z,4.60
2022-11-29T11:32:31.788Z,4.72
2022-11-29T11:35:01.296Z,4.38
2022-11-29T11:37:30.948Z,4.05
2022-11-29T11:40:02.109Z,3.53
2022-11-29T11:42:42.665Z,3.63
2022-11-29T11:45:30.983Z,4.10
2022-11-29T11:48:00.861Z,7.63
2022-11-29T11:50:32.575Z,5.38
2022-11-29T11:53:02.804Z,4.43
2022-11-29T11:55:35.570Z,4.18
2022-11-29T11:58:10.223Z,4.25
2022-11-29T12:01:03.036Z,4.32
2022-11-29T12:03:47.012Z,4.18
2022-11-29T12:06:28.385Z,3.70
2022-11-29T12:09:00.746Z,3.72
2022-11-29T12:11:35.072Z,4.38
2022-11-29T12:14:05.948Z,3.63
2022-11-29T12:16:37.988Z,4.53
2022-11-29T12:19:14.191Z,3.40
2022-11-29T12:21:45.787Z,3.88
2022-11-29T12:24:22.496Z,3.50
2022-11-29T12:26:57.665Z,3.50
2022-11-29T12:29:28.686Z,5.03
2022-11-29T12:32:13.268Z,4.88
2022-11-29T12:34:53.573Z,4.05
2022-11-29T12:37:25.653Z,3.60
2022-11-29T12:39:58.269Z,3.97
2022-11-29T12:42:39.784Z,4.80
2022-11-29T12:45:24.481Z,7.32
2022-11-29T12:48:02.289Z,3.45
2022-11-29T12:50:40.463Z,4.03
2022-11-29T12:53:25.476Z,3.63
2022-11-29T12:56:03.400Z,3.90
2022-11-29T12:58:45.642Z,3.92
2022-11-29T13:01:25.601Z,3.25
2022-11-29T13:04:00.064Z,2.38
2022-11-29T13:06:33.581Z,3.00
2022-11-29T13:09:32.674Z,3.05
2022-11-29T13:12:06.917Z,2.85
2022-11-29T13:14:43.705Z,2.92
2022-11-29T13:17:27.846Z,2.50
2022-11-29T13:19:59.480Z,2.97
2022-11-29T13:22:31.999Z,2.20
2022-11-29T13:25:04.223Z,2.42
2022-11-29T13:27:36.206Z,2.70
2022-11-29T13:30:06.624Z,2.67
2022-11-29T13:32:36.924Z,2.78
2022-11-29T13:35:13.877Z,2.67
2022-11-29T13:37:55.029Z,3.20
2022-11-29T13:40:35.364Z,2.92
2022-11-29T13:43:12.718Z,3.03
2022-11-29T13:45:48.128Z,2.83
2022-11-29T13:48:34.100Z,3.15
2022-11-29T13:53:48.888Z,3.20
2022-11-29T13:56:32.876Z,2.78
2022-11-29T13:59:02.054Z,2.90
2022-11-29T14:01:43.266Z,3.25
2022-11-29T14:04:23.829Z,3.17
2022-11-29T14:07:02.100Z,2.90
2022-11-29T14:09:34.318Z,3.00
2022-11-29T14:12:05.896Z,2.75
2022-11-29T14:14:38.731Z,2.97
2022-11-29T14:17:33.910Z,3.45
2022-11-29T14:20:35.335Z,3.60
2022-11-29T14:23:17.300Z,3.65
2022-11-29T14:26:28.051Z,3.97
2022-11-29T14:28:56.772Z,4.55
2022-11-29T14:31:52.951Z,5.40
2022-11-29T14:34:44.170Z,5.55
2022-11-29T14:37:24.991Z,6.15
2022-11-29T14:39:55.836Z,7.80
2022-11-29T14:42:26.284Z,7.95
2022-11-29T14:44:58.316Z,11.13
2022-11-29T14:47:31.859Z,12.55
2022-11-29T14:50:04.081Z,11.15
2022-11-29T14:52:36.801Z,12.52
2022-11-29T14:55:08.536Z,13.43
2022-11-29T14:57:54.376Z,12.52
2022-11-29T15:00:24.311Z,14.50
2022-11-29T15:02:54.467Z,15.27
2022-11-29T15:05:30.556Z,16.63
2022-11-29T15:08:09.680Z,17.67
2022-11-29T15:10:42.246Z,19.20
2022-11-29T15:13:14.391Z,19.00
2022-11-29T15:16:08.930Z,19.60
2022-11-29T15:19:12.174Z,18.92
2022-11-29T15:21:53.248Z,20.63
2022-11-29T15:24:26.713Z,19.45
2022-11-29T15:26:57.513Z,20.17
2022-11-29T15:29:25.950Z,21.20
2022-11-29T15:31:55.844Z,21.02
2022-11-29T15:34:32.231Z,21.23
2022-11-29T15:37:02.346Z,20.98
2022-11-29T15:39:32.069Z,20.67
2022-11-29T15:42:04.520Z,20.83
2022-11-29T15:44:33.748Z,20.88
2022-11-29T15:47:22.013Z,20.52
2022-11-29T15:49:49.858Z,20.95
2022-11-29T15:52:25.113Z,23.92
2022-11-29T15:54:57.757Z,21.23
2022-11-29T15:57:30.412Z,23.95
2022-11-29T16:00:01.395Z,25.38
2022-11-29T16:02:31.259Z,22.58
2022-11-29T16:05:03.998Z,24.58
2022-11-29T16:07:34.337Z,23.10
2022-11-29T16:10:11.607Z,25.65
2022-11-29T16:12:53.006Z,26.02
2022-11-29T16:15:29.677Z,25.33
2022-11-29T16:17:57.467Z,25.70
2022-11-29T16:20:26.748Z,27.38
2022-11-29T16:23:11.517Z,27.55
2022-11-29T16:25:56.889Z,27.45
2022-11-29T16:28:27.299Z,28.55
2022-11-29T16:30:55.070Z,26.45
2022-11-29T16:33:25.571Z,28.58
2022-11-29T16:36:04.707Z,27.05
2022-11-29T16:38:34.210Z,28.80
2022-11-29T16:41:07.241Z,28.98
2022-11-29T16:43:53.603Z,27.92
2022-11-29T16:46:35.755Z,27.75
2022-11-29T16:49:25.573Z,26.13
2022-11-29T16:51:54.893Z,27.35
2022-11-29T16:54:26.290Z,28.00
2022-11-29T16:56:55.629Z,28.90
2022-11-29T16:59:28.073Z,28.60
2022-11-29T17:01:57.239Z,29.27
2022-11-29T17:04:25.519Z,29.40
2022-11-29T17:06:54.793Z,28.60
2022-11-29T17:09:28.766Z,29.40
2022-11-29T17:12:00.951Z,30.90
2022-11-29T17:14:29.004Z,31.55
2022-11-29T17:16:56.914Z,30.27
2022-11-29T17:19:25.316Z,31.50
2022-11-29T17:21:53.572Z,35.83
2022-11-29T17:24:23.174Z,31.67
2022-11-29T17:26:55.782Z,33.30
2022-11-29T17:29:23.641Z,33.25
2022-11-29T17:31:53.155Z,35.80
2022-11-29T17:34:20.979Z,36.65
2022-11-29T17:36:49.108Z,37.22
2022-11-29T17:39:20.002Z,37.30
2022-11-29T17:41:47.785Z,37.50
2022-11-29T17:44:19.496Z,38.25
2022-11-29T17:46:47.222Z,39.47
2022-11-29T17:49:14.949Z,42.53
2022-11-29T17:51:51.692Z,36.60
2022-11-29T17:54:21.339Z,38.42
2022-11-29T17:56:49.275Z,35.88
2022-11-29T17:59:18.414Z,36.95
2022-11-29T18:01:47.188Z,37.53
2022-11-29T18:04:15.365Z,38.90
2022-11-29T18:06:43.490Z,39.92
2022-11-29T18:09:12.853Z,38.58
2022-11-29T18:11:47.973Z,40.95
2022-11-29T18:14:20.104Z,38.78
2022-11-29T18:16:47.900Z,41.25
2022-11-29T18:19:18.715Z,40.42
2022-11-29T18:21:46.725Z,38.30
2022-11-29T18:24:14.778Z,40.30
2022-11-29T18:26:43.303Z,38.95
2022-11-29T18:29:11.395Z,40.67
2022-11-29T18:31:42.374Z,40.17
2022-11-29T18:34:12.992Z,39.05
2022-11-29T18:36:43.824Z,40.33
2022-11-29T18:39:15.023Z,39.25
2022-11-29T18:41:45.129Z,40.03
2022-11-29T18:44:15.103Z,40.20
2022-11-29T18:46:45.683Z,38.92
2022-11-29T18:49:15.061Z,39.40
2022-11-29T18:51:44.815Z,38.17
2022-11-29T18:54:13.783Z,36.53
2022-11-29T18:56:42.287Z,37.00
2022-11-29T18:59:16.779Z,36.90
2022-11-29T19:01:48.818Z,39.50
2022-11-29T19:04:18.659Z,38.55
2022-11-29T19:06:46.443Z,36.72
2022-11-29T19:09:16.529Z,36.90
2022-11-29T19:11:44.441Z,34.85
2022-11-29T19:14:13.304Z,35.47
2022-11-29T19:16:44.018Z,34.83
2022-11-29T19:19:13.196Z,35.75
2022-11-29T19:21:41.799Z,36.25
2022-11-29T19:24:15.006Z,34.63
2022-11-29T19:26:45.423Z,34.78
2022-11-29T19:29:13.672Z,34.80
2022-11-29T19:31:42.358Z,36.20
2022-11-29T19:34:10.183Z,40.67
2022-11-29T19:36:43.027Z,39.17
2022-11-29T19:39:11.854Z,37.33
2022-11-29T19:41:39.788Z,40.45
2022-11-29T19:44:08.971Z,38.60
2022-11-29T19:46:39.495Z,38.28
2022-11-29T19:49:09.348Z,39.08
2022-11-29T19:51:37.813Z,37.13
2022-11-29T19:54:09.924Z,35.33
2022-11-29T19:56:38.756Z,36.25
2022-11-29T19:59:07.417Z,38.13
2022-11-29T20:01:42.571Z,37.42
2022-11-29T20:06:39.114Z,34.80
2022-11-29T20:09:08.352Z,35.28
2022-11-29T20:11:36.534Z,36.25
2022-11-29T20:14:07.003Z,36.15
2022-11-29T20:16:35.091Z,34.85
2022-11-29T20:19:02.955Z,35.33
2022-11-29T20:21:31.961Z,36.03
2022-11-29T20:24:02.916Z,34.97
2022-11-29T20:26:34.810Z,35.55
2022-11-29T20:29:03.027Z,36.67
2022-11-29T20:31:31.153Z,36.03
2022-11-29T20:33:59.433Z,35.53
2022-11-29T20:36:40.694Z,33.67
2022-11-29T20:39:24.825Z,38.08
2022-11-29T20:42:08.783Z,37.45
2022-11-29T20:44:39.403Z,37.13
2022-11-29T20:47:15.111Z,37.42
2022-11-29T20:49:43.123Z,39.20
2022-11-29T20:52:19.386Z,37.38
2022-11-29T20:54:47.121Z,37.78
2022-11-29T20:57:16.270Z,35.38
2022-11-29T20:59:46.942Z,36.83
2022-11-29T21:02:15.007Z,37.10
2022-11-29T21:04:42.741Z,38.15
2022-11-29T21:07:10.524Z,37.90
2022-11-29T21:09:38.269Z,36.03
2022-11-29T21:12:07.174Z,35.67
2022-11-29T21:14:37.353Z,37.50
2022-11-29T21:17:06.028Z,36.38
2022-11-29T21:19:34.290Z,36.72
2022-11-29T21:22:08.882Z,36.08
2022-11-29T21:24:46.161Z,36.70
2022-11-29T21:27:18.897Z,35.15
2022-11-29T21:29:48.573Z,35.03
2022-11-29T21:32:23.035Z,35.97
2022-11-29T21:34:51.034Z,35.55
2022-11-29T21:37:21.524Z,32.92
2022-11-29T21:39:51.640Z,35.03
2022-11-29T21:42:19.656Z,33.28
2022-11-29T21:44:49.121Z,34.00
2022-11-29T21:47:18.229Z,33.85
2022-11-29T21:49:46.776Z,33.83
2022-11-29T21:52:20.646Z,30.75
2022-11-29T21:54:49.876Z,32.40
2022-11-29T21:57:17.622Z,32.25
2022-11-29T21:59:45.360Z,32.05
2022-11-29T22:02:14.597Z,33.90
2022-11-29T22:04:42.418Z,33.13
2022-11-29T22:07:10.236Z,33.45
2022-11-29T22:09:39.703Z,32.25
2022-11-29T22:12:31.799Z,31.80
2022-11-29T22:14:55.713Z,30.27
2022-11-29T22:17:25.917Z,31.45
2022-11-29T22:19:53.697Z,31.73
2022-11-29T22:22:21.894Z,33.10
2022-11-29T22:24:49.816Z,29.52
2022-11-29T22:27:18.600Z,30.33
2022-11-29T22:29:46.405Z,29.40
2022-11-29T22:32:14.121Z,32.00
2022-11-29T22:34:43.321Z,31.55
2022-11-29T22:37:12.401Z,30.63
2022-11-29T22:39:40.165Z,31.27
2022-11-29T22:42:07.900Z,31.58
2022-11-29T22:44:35.645Z,30.83
2022-11-29T22:47:03.398Z,29.75
2022-11-29T22:49:33.148Z,32.08
2022-11-29T22:52:04.674Z,31.42
2022-11-29T22:54:32.375Z,32.25
2022-11-29T22:57:01.868Z,31.45
2022-11-29T23:06:07.375Z,33.72
2022-11-29T23:08:35.797Z,36.40
2022-11-29T23:11:05.246Z,34.72
2022-11-29T23:13:33.979Z,32.70
2022-11-29T23:16:02.249Z,33.85
2022-11-29T23:18:30.263Z,32.80
2022-11-29T23:21:03.617Z,33.08
2022-11-29T23:23:31.996Z,31.73
2022-11-29T23:26:02.544Z,31.75
2022-11-29T23:28:31.017Z,32.17
2022-11-29T23:30:59.890Z,31.50
2022-11-29T23:33:28.721Z,32.78
2022-11-29T23:36:02.844Z,33.33
2022-11-29T23:38:30.842Z,33.33
2022-11-29T23:40:58.821Z,33.50
2022-11-29T23:43:29.872Z,32.70
2022-11-29T23:45:58.135Z,35.15
2022-11-29T23:48:26.091Z,32.90
2022-11-29T23:50:53.895Z,34.05
2022-11-29T23:53:22.992Z,32.72
2022-11-29T23:55:57.256Z,33.08
2022-11-29T23:58:24.994Z,29.45
